SWA179 KALB-KMDW
Flight info
| Callsign | SWA179 |
|---|---|
| Flight time | N/A |
| Altitude | 38000 |
| Route | PAYGE Q822 GONZZ Q29 DORET DJB ASHEN PANGG7 |
| Aircraft | B737/M-SDE2E3FGHIRWXY/LB1 |
Departure
| Time | 2026-05-05 14:33 |
|---|---|
| Airport | Albany International Airport (KALB) |
Arrival
| Time | N/A |
|---|---|
| Airport | Chicago Midway International Airport (KMDW) |
| Time | Latitude | Longitude | Altitude | Speed | Heading |
|---|---|---|---|---|---|
| 2026-05-05 14:32 | 42.76010 | -73.80590 | 294 ft | 0 kts | 92° |
| 2026-05-05 14:33 | 42.75995 | -73.80537 | 294 ft | 10 kts | 158° |
| 2026-05-05 14:33 | 42.75840 | -73.80518 | 294 ft | 54 kts | 176° |
| 2026-05-05 14:33 | 42.75036 | -73.80492 | 357 ft | 158 kts | 178° |
| 2026-05-05 14:33 | 42.73842 | -73.80544 | 1247 ft | 187 kts | 188° |
| 2026-05-05 14:34 | 42.72603 | -73.81430 | 2491 ft | 221 kts | 218° |
| 2026-05-05 14:34 | 42.71719 | -73.83205 | 3784 ft | 236 kts | 243° |
| 2026-05-05 14:34 | 42.71497 | -73.84681 | 4625 ft | 246 kts | 259° |
| 2026-05-05 14:34 | 42.72092 | -73.87776 | 6321 ft | 265 kts | 293° |
| 2026-05-05 14:35 | 42.73361 | -73.89626 | 7585 ft | 276 kts | 315° |
| 2026-05-05 14:35 | 42.75007 | -73.91019 | 8851 ft | 280 kts | 324° |
| 2026-05-05 14:35 | 42.76183 | -73.91834 | 9697 ft | 280 kts | 327° |
| 2026-05-05 14:35 | 42.78527 | -73.93338 | 11362 ft | 281 kts | 326° |
| 2026-05-05 14:36 | 42.79707 | -73.94109 | 12072 ft | 288 kts | 325° |
| 2026-05-05 14:36 | 42.81455 | -73.95415 | 13039 ft | 283 kts | 320° |
| 2026-05-05 14:36 | 42.83100 | -73.96896 | 14048 ft | 283 kts | 315° |
| 2026-05-05 14:36 | 42.84669 | -73.98572 | 14880 ft | 288 kts | 311° |
| 2026-05-05 14:37 | 42.86620 | -74.01023 | 15884 ft | 288 kts | 308° |
| 2026-05-05 14:37 | 42.87552 | -74.02324 | 16388 ft | 290 kts | 306° |
| 2026-05-05 14:37 | 42.88922 | -74.04360 | 17147 ft | 293 kts | 304° |
| 2026-05-05 14:37 | 42.90267 | -74.06465 | 17897 ft | 296 kts | 302° |
| 2026-05-05 14:38 | 42.91603 | -74.08639 | 18650 ft | 300 kts | 302° |
| 2026-05-05 14:38 | 42.92935 | -74.10862 | 19404 ft | 304 kts | 301° |
| 2026-05-05 14:38 | 42.94275 | -74.13132 | 20162 ft | 308 kts | 301° |
| 2026-05-05 14:38 | 42.95620 | -74.15429 | 20914 ft | 311 kts | 302° |
| 2026-05-05 14:39 | 42.96960 | -74.17728 | 21658 ft | 314 kts | 302° |
| 2026-05-05 14:39 | 42.98326 | -74.20075 | 22413 ft | 317 kts | 302° |
| 2026-05-05 14:39 | 42.99552 | -74.22561 | 23165 ft | 312 kts | 292° |
| 2026-05-05 14:39 | 43.00354 | -74.25309 | 23925 ft | 311 kts | 283° |
| 2026-05-05 14:40 | 43.00888 | -74.28149 | 24679 ft | 312 kts | 278° |
| 2026-05-05 14:40 | 43.01270 | -74.31074 | 25437 ft | 313 kts | 275° |
| 2026-05-05 14:40 | 43.01557 | -74.34042 | 26197 ft | 316 kts | 273° |
| 2026-05-05 14:40 | 43.01784 | -74.37034 | 26941 ft | 319 kts | 272° |
| 2026-05-05 14:41 | 43.01980 | -74.40105 | 27529 ft | 327 kts | 272° |
| 2026-05-05 14:41 | 43.02155 | -74.43237 | 28048 ft | 332 kts | 271° |
| 2026-05-05 14:41 | 43.02317 | -74.46384 | 28550 ft | 335 kts | 271° |
| 2026-05-05 14:41 | 43.02472 | -74.49581 | 29054 ft | 337 kts | 271° |
| 2026-05-05 14:42 | 43.02620 | -74.52761 | 29550 ft | 338 kts | 271° |
| 2026-05-05 14:42 | 43.02768 | -74.55985 | 30054 ft | 340 kts | 271° |
| 2026-05-05 14:42 | 43.02913 | -74.59225 | 30562 ft | 342 kts | 271° |
| 2026-05-05 14:42 | 43.03056 | -74.62488 | 31074 ft | 344 kts | 271° |
| 2026-05-05 14:43 | 43.03195 | -74.65766 | 31575 ft | 346 kts | 271° |
| 2026-05-05 14:43 | 43.03331 | -74.69031 | 32071 ft | 348 kts | 272° |
| 2026-05-05 14:43 | 43.03471 | -74.72353 | 32577 ft | 351 kts | 272° |
| 2026-05-05 14:43 | 43.03613 | -74.75695 | 33083 ft | 353 kts | 272° |
| 2026-05-05 14:44 | 43.03755 | -74.79070 | 33587 ft | 356 kts | 271° |
| 2026-05-05 14:44 | 43.03897 | -74.82461 | 34087 ft | 359 kts | 271° |
| 2026-05-05 14:44 | 43.04037 | -74.85842 | 34582 ft | 361 kts | 271° |
| 2026-05-05 14:44 | 43.04177 | -74.89288 | 35067 ft | 365 kts | 271° |
| 2026-05-05 14:45 | 43.04319 | -74.92797 | 35390 ft | 372 kts | 271° |
| 2026-05-05 14:45 | 43.04462 | -74.96361 | 35656 ft | 379 kts | 271° |
| 2026-05-05 14:45 | 43.04607 | -75.00006 | 35913 ft | 386 kts | 271° |
| 2026-05-05 14:45 | 43.04750 | -75.03649 | 36163 ft | 390 kts | 271° |
| 2026-05-05 14:46 | 43.04896 | -75.07380 | 36416 ft | 392 kts | 271° |
| 2026-05-05 14:46 | 43.05042 | -75.11110 | 36666 ft | 392 kts | 271° |
| 2026-05-05 14:46 | 43.05186 | -75.14826 | 36915 ft | 390 kts | 271° |
| 2026-05-05 14:46 | 43.05326 | -75.18490 | 37161 ft | 389 kts | 271° |
| 2026-05-05 14:47 | 43.05467 | -75.22191 | 37411 ft | 388 kts | 271° |
| 2026-05-05 14:47 | 43.05603 | -75.25892 | 37611 ft | 389 kts | 271° |
| 2026-05-05 14:47 | 43.05846 | -75.33322 | 37727 ft | 395 kts | 271° |
| 2026-05-05 14:48 | 43.06069 | -75.40836 | 37728 ft | 397 kts | 270° |
| 2026-05-05 14:48 | 43.06283 | -75.48452 | 37728 ft | 403 kts | 270° |
| 2026-05-05 14:49 | 43.06493 | -75.56180 | 37728 ft | 407 kts | 270° |
| 2026-05-05 14:49 | 43.06697 | -75.63891 | 37729 ft | 408 kts | 270° |
| 2026-05-05 14:50 | 43.06898 | -75.71648 | 37727 ft | 404 kts | 270° |
| 2026-05-05 14:50 | 43.07090 | -75.79268 | 37726 ft | 401 kts | 270° |
| 2026-05-05 14:51 | 43.07276 | -75.86907 | 37727 ft | 400 kts | 271° |
| 2026-05-05 14:51 | 43.07456 | -75.94511 | 37726 ft | 399 kts | 271° |
| 2026-05-05 14:52 | 43.07628 | -76.02076 | 37713 ft | 402 kts | 271° |
| 2026-05-05 14:52 | 43.07800 | -76.09795 | 37721 ft | 409 kts | 271° |
| 2026-05-05 14:53 | 43.07975 | -76.17607 | 37724 ft | 409 kts | 270° |
| 2026-05-05 14:53 | 43.08139 | -76.25328 | 37710 ft | 406 kts | 270° |
| 2026-05-05 14:54 | 43.08298 | -76.33052 | 37710 ft | 406 kts | 270° |
| 2026-05-05 14:54 | 43.08450 | -76.40783 | 37712 ft | 406 kts | 269° |
| 2026-05-05 14:55 | 43.08595 | -76.48503 | 37703 ft | 405 kts | 269° |
| 2026-05-05 14:55 | 43.08734 | -76.56168 | 37703 ft | 405 kts | 269° |
| 2026-05-05 14:56 | 43.08846 | -76.63887 | 37702 ft | 404 kts | 266° |
| 2026-05-05 14:56 | 43.07623 | -76.71295 | 37701 ft | 402 kts | 249° |
| 2026-05-05 14:57 | 43.05257 | -76.78253 | 37709 ft | 403 kts | 243° |
| 2026-05-05 14:57 | 43.02535 | -76.84871 | 37714 ft | 397 kts | 241° |
| 2026-05-05 14:58 | 42.99753 | -76.91309 | 37709 ft | 392 kts | 241° |
| 2026-05-05 14:58 | 42.96989 | -76.97700 | 37709 ft | 391 kts | 241° |
| 2026-05-05 14:59 | 42.94235 | -77.04142 | 37713 ft | 393 kts | 242° |
| 2026-05-05 14:59 | 42.91511 | -77.10600 | 37716 ft | 395 kts | 242° |
| 2026-05-05 15:00 | 42.89368 | -77.16116 | 37709 ft | 396 kts | 244° |
| 2026-05-05 15:00 | 42.86519 | -77.24017 | 37720 ft | 396 kts | 245° |
| 2026-05-05 15:01 | 42.84148 | -77.30775 | 37724 ft | 397 kts | 245° |
| 2026-05-05 15:01 | 42.81769 | -77.37592 | 37721 ft | 398 kts | 245° |
| 2026-05-05 15:02 | 42.79402 | -77.44367 | 37716 ft | 399 kts | 245° |
| 2026-05-05 15:02 | 42.77003 | -77.51215 | 37718 ft | 400 kts | 245° |
| 2026-05-05 15:03 | 42.74616 | -77.58015 | 37718 ft | 400 kts | 245° |
| 2026-05-05 15:03 | 42.72203 | -77.64863 | 37712 ft | 402 kts | 245° |
| 2026-05-05 15:04 | 42.69778 | -77.71731 | 37720 ft | 403 kts | 245° |
| 2026-05-05 15:04 | 42.67359 | -77.78565 | 37731 ft | 403 kts | 245° |
| 2026-05-05 15:05 | 42.63713 | -77.88831 | 37732 ft | 399 kts | 245° |
| 2026-05-05 15:06 | 42.61309 | -77.95578 | 37740 ft | 399 kts | 245° |
| 2026-05-05 15:06 | 42.58879 | -78.02383 | 37747 ft | 400 kts | 245° |
| 2026-05-05 15:07 | 42.56447 | -78.09178 | 37742 ft | 401 kts | 245° |
| 2026-05-05 15:07 | 42.53994 | -78.16013 | 37745 ft | 403 kts | 245° |
| 2026-05-05 15:08 | 42.51548 | -78.22812 | 37779 ft | 404 kts | 245° |
| 2026-05-05 15:08 | 42.49073 | -78.29678 | 37788 ft | 406 kts | 244° |
| 2026-05-05 15:09 | 42.46599 | -78.36528 | 37789 ft | 407 kts | 244° |
| 2026-05-05 15:09 | 42.44097 | -78.43429 | 37796 ft | 408 kts | 244° |
| 2026-05-05 15:10 | 42.41602 | -78.50297 | 37797 ft | 408 kts | 244° |
| 2026-05-05 15:10 | 42.39092 | -78.57184 | 37771 ft | 407 kts | 244° |
| 2026-05-05 15:11 | 42.36584 | -78.64053 | 37765 ft | 406 kts | 244° |
| 2026-05-05 15:11 | 42.34074 | -78.70911 | 37804 ft | 407 kts | 244° |
| 2026-05-05 15:12 | 42.31563 | -78.77754 | 37803 ft | 408 kts | 244° |
| 2026-05-05 15:12 | 42.29043 | -78.84611 | 37786 ft | 404 kts | 244° |
| 2026-05-05 15:13 | 42.26558 | -78.91351 | 37781 ft | 401 kts | 244° |
| 2026-05-05 15:13 | 42.24057 | -78.98117 | 37780 ft | 402 kts | 244° |
| 2026-05-05 15:14 | 42.21569 | -79.04832 | 37767 ft | 402 kts | 244° |
| 2026-05-05 15:14 | 42.19211 | -79.11699 | 37767 ft | 403 kts | 248° |
| 2026-05-05 15:15 | 42.17197 | -79.18736 | 37783 ft | 406 kts | 250° |
| 2026-05-05 15:15 | 42.15278 | -79.25961 | 37783 ft | 409 kts | 251° |
| 2026-05-05 15:16 | 42.13395 | -79.33218 | 37781 ft | 410 kts | 251° |
| 2026-05-05 15:16 | 42.11528 | -79.40449 | 37783 ft | 410 kts | 251° |
| 2026-05-05 15:17 | 42.09657 | -79.47681 | 37782 ft | 411 kts | 251° |
| 2026-05-05 15:17 | 42.07770 | -79.54943 | 37771 ft | 409 kts | 251° |
| 2026-05-05 15:18 | 42.05895 | -79.62130 | 37769 ft | 409 kts | 251° |
| 2026-05-05 15:18 | 42.04000 | -79.69367 | 37768 ft | 409 kts | 251° |
| 2026-05-05 15:19 | 42.02106 | -79.76571 | 37760 ft | 410 kts | 251° |
| 2026-05-05 15:19 | 42.00512 | -79.82604 | 37765 ft | 410 kts | 252° |
| 2026-05-05 15:20 | 41.98602 | -79.89819 | 37777 ft | 406 kts | 252° |
| 2026-05-05 15:20 | 41.96408 | -79.98087 | 37767 ft | 402 kts | 252° |
| 2026-05-05 15:21 | 41.94845 | -80.03965 | 37764 ft | 401 kts | 252° |
| 2026-05-05 15:21 | 41.92972 | -80.10987 | 37772 ft | 400 kts | 252° |
| 2026-05-05 15:22 | 41.91084 | -80.18048 | 37770 ft | 401 kts | 252° |
| 2026-05-05 15:22 | 41.89175 | -80.25161 | 37769 ft | 407 kts | 252° |
| 2026-05-05 15:23 | 41.87260 | -80.32284 | 37781 ft | 408 kts | 252° |
| 2026-05-05 15:23 | 41.85333 | -80.39416 | 37786 ft | 405 kts | 252° |
| 2026-05-05 15:24 | 41.83411 | -80.46511 | 37784 ft | 403 kts | 252° |
| 2026-05-05 15:24 | 41.81507 | -80.53524 | 37793 ft | 402 kts | 252° |
| 2026-05-05 15:25 | 41.79589 | -80.60572 | 37796 ft | 402 kts | 252° |
| 2026-05-05 15:25 | 41.77672 | -80.67591 | 37790 ft | 402 kts | 252° |
| 2026-05-05 15:26 | 41.75741 | -80.74643 | 37787 ft | 403 kts | 252° |
| 2026-05-05 15:26 | 41.73811 | -80.81668 | 37788 ft | 403 kts | 253° |
| 2026-05-05 15:27 | 41.71867 | -80.88711 | 37787 ft | 402 kts | 253° |
| 2026-05-05 15:27 | 41.69945 | -80.95665 | 37786 ft | 397 kts | 253° |
| 2026-05-05 15:28 | 41.68033 | -81.02565 | 37785 ft | 393 kts | 253° |
| 2026-05-05 15:28 | 41.66131 | -81.09415 | 37786 ft | 392 kts | 253° |
| 2026-05-05 15:29 | 41.64234 | -81.16234 | 37787 ft | 391 kts | 253° |
| 2026-05-05 15:29 | 41.62330 | -81.23057 | 37789 ft | 391 kts | 253° |
| 2026-05-05 15:30 | 41.60435 | -81.29824 | 37793 ft | 390 kts | 253° |
| 2026-05-05 15:30 | 41.58532 | -81.36596 | 37788 ft | 387 kts | 253° |
| 2026-05-05 15:31 | 41.56635 | -81.43337 | 37786 ft | 387 kts | 253° |
| 2026-05-05 15:31 | 41.54745 | -81.50037 | 37786 ft | 387 kts | 253° |
| 2026-05-05 15:32 | 41.52837 | -81.56786 | 37786 ft | 387 kts | 253° |
| 2026-05-05 15:32 | 41.50940 | -81.63472 | 37786 ft | 387 kts | 253° |
| 2026-05-05 15:33 | 41.49029 | -81.70193 | 37786 ft | 386 kts | 253° |
| 2026-05-05 15:33 | 41.47124 | -81.76875 | 37788 ft | 387 kts | 253° |
| 2026-05-05 15:34 | 41.45205 | -81.83586 | 37787 ft | 386 kts | 253° |
| 2026-05-05 15:34 | 41.43294 | -81.90249 | 37786 ft | 386 kts | 253° |
| 2026-05-05 15:35 | 41.41371 | -81.96934 | 37789 ft | 383 kts | 253° |
| 2026-05-05 15:35 | 41.39478 | -82.03494 | 37786 ft | 379 kts | 253° |
| 2026-05-05 15:36 | 41.37586 | -82.10042 | 37786 ft | 377 kts | 253° |
| 2026-05-05 15:36 | 41.36439 | -82.16773 | 37788 ft | 371 kts | 267° |
| 2026-05-05 15:37 | 41.36374 | -82.23608 | 37787 ft | 371 kts | 272° |
| 2026-05-05 15:37 | 41.36656 | -82.30556 | 37789 ft | 380 kts | 274° |
| 2026-05-05 15:38 | 41.37050 | -82.37635 | 37793 ft | 383 kts | 274° |
| 2026-05-05 15:38 | 41.37461 | -82.44634 | 37787 ft | 380 kts | 274° |
| 2026-05-05 15:39 | 41.37872 | -82.51644 | 37787 ft | 379 kts | 274° |
| 2026-05-05 15:39 | 41.38276 | -82.58638 | 37790 ft | 380 kts | 274° |
| 2026-05-05 15:40 | 41.38677 | -82.65686 | 37792 ft | 381 kts | 274° |
| 2026-05-05 15:40 | 41.39070 | -82.72708 | 37793 ft | 382 kts | 274° |
| 2026-05-05 15:41 | 41.39461 | -82.79786 | 37793 ft | 382 kts | 274° |
| 2026-05-05 15:41 | 41.39843 | -82.86804 | 37792 ft | 382 kts | 274° |
| 2026-05-05 15:42 | 41.40224 | -82.93879 | 37793 ft | 382 kts | 274° |
| 2026-05-05 15:42 | 41.40599 | -83.00956 | 37797 ft | 382 kts | 274° |
| 2026-05-05 15:43 | 41.40967 | -83.07977 | 37805 ft | 380 kts | 274° |
| 2026-05-05 15:43 | 41.41329 | -83.14958 | 37801 ft | 375 kts | 274° |
| 2026-05-05 15:44 | 41.41684 | -83.21888 | 37801 ft | 373 kts | 274° |
| 2026-05-05 15:44 | 41.42032 | -83.28770 | 37811 ft | 375 kts | 274° |
| 2026-05-05 15:45 | 41.42380 | -83.35739 | 37814 ft | 377 kts | 274° |
| 2026-05-05 15:45 | 41.42723 | -83.42706 | 37814 ft | 379 kts | 274° |
| 2026-05-05 15:46 | 41.43066 | -83.49730 | 37816 ft | 379 kts | 273° |
| 2026-05-05 15:46 | 41.43402 | -83.56717 | 37816 ft | 379 kts | 273° |
| 2026-05-05 15:47 | 41.43736 | -83.63731 | 37816 ft | 379 kts | 273° |
| 2026-05-05 15:47 | 41.44064 | -83.70724 | 37816 ft | 380 kts | 273° |
| 2026-05-05 15:48 | 41.44389 | -83.77761 | 37816 ft | 380 kts | 274° |
| 2026-05-05 15:48 | 41.44709 | -83.84791 | 37816 ft | 379 kts | 274° |
| 2026-05-05 15:49 | 41.45024 | -83.91780 | 37816 ft | 379 kts | 274° |
| 2026-05-05 15:49 | 41.45337 | -83.98799 | 37821 ft | 379 kts | 274° |
| 2026-05-05 15:50 | 41.45643 | -84.05782 | 37823 ft | 379 kts | 274° |
| 2026-05-05 15:50 | 41.45947 | -84.12815 | 37824 ft | 379 kts | 274° |
| 2026-05-05 15:51 | 41.46246 | -84.19824 | 37833 ft | 376 kts | 274° |
| 2026-05-05 15:51 | 41.46535 | -84.26719 | 37833 ft | 372 kts | 274° |
| 2026-05-05 15:52 | 41.46820 | -84.33593 | 37836 ft | 371 kts | 274° |
| 2026-05-05 15:52 | 41.47097 | -84.40490 | 37832 ft | 379 kts | 275° |
| 2026-05-05 15:53 | 41.47390 | -84.47640 | 37862 ft | 389 kts | 273° |